createdAt,value
2022-12-15T00:01:30.536Z,93085.19
2022-12-15T00:03:58.214Z,93074.44
2022-12-15T00:06:24.684Z,93073.41
2022-12-15T00:08:51.120Z,93078.00
2022-12-15T00:11:17.541Z,93077.19
2022-12-15T00:13:44.483Z,93073.34
2022-12-15T00:16:11.110Z,93078.75
2022-12-15T00:18:37.560Z,93072.34
2022-12-15T00:21:04.281Z,93065.47
2022-12-15T00:23:32.176Z,93074.75
2022-12-15T00:25:59.442Z,93065.63
2022-12-15T00:28:26.027Z,93068.09
2022-12-15T00:30:54.033Z,93076.94
2022-12-15T00:33:24.237Z,93074.75
2022-12-15T00:35:50.842Z,93081.00
2022-12-15T00:38:17.460Z,93086.94
2022-12-15T00:40:44.314Z,93088.69
2022-12-15T00:43:11.692Z,93088.94
2022-12-15T00:45:38.316Z,93084.88
2022-12-15T00:48:04.754Z,93088.13
2022-12-15T00:50:31.163Z,93083.69
2022-12-15T00:52:57.645Z,93086.94
2022-12-15T00:55:24.851Z,93091.63
2022-12-15T00:57:52.452Z,93092.31
2022-12-15T01:00:19.050Z,93086.53
2022-12-15T01:02:45.841Z,93080.91
2022-12-15T01:05:13.231Z,93075.50
2022-12-15T01:07:39.806Z,93076.75
2022-12-15T01:10:06.253Z,93076.72
2022-12-15T01:12:32.676Z,93075.06
2022-12-15T01:14:59.109Z,93075.22
2022-12-15T01:17:25.569Z,93091.56
2022-12-15T01:19:51.994Z,93088.31
2022-12-15T01:22:18.452Z,93090.69
2022-12-15T01:24:47.699Z,93077.97
2022-12-15T01:27:14.565Z,93074.50
2022-12-15T01:29:41.192Z,93081.78
2022-12-15T01:32:07.652Z,93082.34
2022-12-15T01:34:34.338Z,93077.47
2022-12-15T01:37:02.929Z,93084.34
2022-12-15T01:39:29.525Z,93078.84
2022-12-15T01:41:56.124Z,93083.28
2022-12-15T01:44:22.724Z,93089.13
2022-12-15T01:46:49.349Z,93108.84
2022-12-15T01:49:15.995Z,93115.31
2022-12-15T01:51:42.473Z,93118.19
2022-12-15T01:54:09.177Z,93112.28
2022-12-15T01:56:37.920Z,93111.47
2022-12-15T01:59:05.395Z,93113.13
2022-12-15T02:01:31.919Z,93102.66
2022-12-15T02:03:58.566Z,93117.81
2022-12-15T02:06:25.179Z,93109.94
2022-12-15T02:08:51.590Z,93105.69
2022-12-15T02:11:18.004Z,93102.59
2022-12-15T02:13:44.394Z,93095.38
2022-12-15T02:16:10.844Z,93099.97
2022-12-15T02:18:37.328Z,93096.19
2022-12-15T02:21:03.894Z,93103.47
2022-12-15T02:23:30.748Z,93093.59
2022-12-15T02:25:57.892Z,93094.22
2022-12-15T02:28:24.501Z,93087.78
2022-12-15T02:30:53.619Z,93094.09
2022-12-15T02:33:20.685Z,93093.69
2022-12-15T02:35:48.260Z,93096.19
2022-12-15T02:38:14.667Z,93086.09
2022-12-15T02:40:41.114Z,93080.03
2022-12-15T02:43:07.522Z,93072.97
2022-12-15T02:45:34.833Z,93072.34
2022-12-15T02:48:01.417Z,93072.16
2022-12-15T02:50:27.853Z,93074.59
2022-12-15T02:52:54.487Z,93072.16
2022-12-15T02:55:20.925Z,93074.16
2022-12-15T02:57:47.366Z,93076.78
2022-12-15T03:00:14.248Z,93077.16
2022-12-15T03:02:40.816Z,93080.00
2022-12-15T03:05:07.466Z,93087.06
2022-12-15T03:07:34.029Z,93093.31
2022-12-15T03:10:00.462Z,93100.34
2022-12-15T03:12:27.285Z,93091.81
2022-12-15T03:14:54.851Z,93096.28
2022-12-15T03:17:21.443Z,93095.25
2022-12-15T03:19:49.892Z,93097.22
2022-12-15T03:22:17.641Z,93102.06
2022-12-15T03:24:44.051Z,93102.44
2022-12-15T03:27:10.874Z,93100.19
2022-12-15T03:29:37.462Z,93098.97
2022-12-15T03:32:04.125Z,93108.00
2022-12-15T03:34:31.657Z,93102.69
2022-12-15T03:36:58.086Z,93113.94
2022-12-15T03:39:24.565Z,93108.28
2022-12-15T03:41:50.991Z,93105.66
2022-12-15T03:44:18.024Z,93101.38
2022-12-15T03:46:45.615Z,93094.50
2022-12-15T03:49:13.211Z,93100.75
2022-12-15T03:51:39.708Z,93100.75
2022-12-15T03:54:06.360Z,93096.31
2022-12-15T03:56:32.775Z,93097.13
2022-12-15T03:58:59.585Z,93088.44
2022-12-15T04:01:27.236Z,93098.75
2022-12-15T04:04:00.061Z,93098.38
2022-12-15T04:06:27.145Z,93096.38
2022-12-15T04:08:53.976Z,93100.00
2022-12-15T04:11:20.559Z,93096.22
2022-12-15T04:13:47.142Z,93093.94
2022-12-15T04:16:19.522Z,93090.31
2022-12-15T04:18:46.657Z,93082.88
2022-12-15T04:21:13.937Z,93088.09
2022-12-15T04:23:40.380Z,93076.78
2022-12-15T04:26:07.124Z,93080.56
2022-12-15T04:28:33.707Z,93071.69
2022-12-15T04:31:00.331Z,93075.13
2022-12-15T04:33:30.752Z,93066.69
2022-12-15T04:35:58.521Z,93062.63
2022-12-15T04:38:25.114Z,93065.25
2022-12-15T04:40:51.716Z,93060.00
2022-12-15T04:43:18.149Z,93061.38
2022-12-15T04:45:44.600Z,93063.75
2022-12-15T04:48:11.097Z,93056.28
2022-12-15T04:50:37.493Z,93061.47
2022-12-15T04:53:03.923Z,93065.66
2022-12-15T04:55:30.356Z,93078.13
2022-12-15T04:57:56.798Z,93076.97
2022-12-15T05:00:23.227Z,93073.22
2022-12-15T05:02:49.913Z,93063.63
2022-12-15T05:05:16.412Z,93053.88
2022-12-15T05:07:42.793Z,93056.06
2022-12-15T05:10:14.607Z,93065.31
2022-12-15T05:12:41.469Z,93061.50
2022-12-15T05:15:07.914Z,93066.56
2022-12-15T05:17:36.977Z,93072.00
2022-12-15T05:20:07.637Z,93082.22
2022-12-15T05:22:34.057Z,93079.53
2022-12-15T05:25:00.467Z,93061.47
2022-12-15T05:27:26.858Z,93066.59
2022-12-15T05:29:53.273Z,93079.84
2022-12-15T05:32:19.718Z,93072.06
2022-12-15T05:34:46.143Z,93077.22
2022-12-15T05:37:12.549Z,93075.50
2022-12-15T05:39:38.987Z,93074.72
2022-12-15T05:42:05.494Z,93078.66
2022-12-15T05:44:31.877Z,93078.94
2022-12-15T05:46:58.267Z,93082.94
2022-12-15T05:49:24.698Z,93086.28
2022-12-15T05:51:51.162Z,93082.19
2022-12-15T05:54:17.589Z,93089.25
2022-12-15T05:56:44.023Z,93090.44
2022-12-15T05:59:10.452Z,93085.81
2022-12-15T06:01:36.996Z,93085.53
2022-12-15T06:04:03.457Z,93086.63
2022-12-15T06:06:29.887Z,93082.03
2022-12-15T06:08:56.315Z,93076.50
2022-12-15T06:11:22.829Z,93087.97
2022-12-15T06:13:49.352Z,93082.25
2022-12-15T06:16:15.812Z,93086.69
2022-12-15T06:18:42.258Z,93088.50
2022-12-15T06:21:08.668Z,93095.03
2022-12-15T06:23:35.150Z,93091.84
2022-12-15T06:26:01.640Z,93092.66
2022-12-15T06:28:28.045Z,93094.84
2022-12-15T06:30:54.502Z,93096.75
2022-12-15T06:33:20.990Z,93102.81
2022-12-15T06:35:47.426Z,93105.78
2022-12-15T06:38:13.856Z,93117.97
2022-12-15T06:40:40.325Z,93132.59
2022-12-15T06:43:06.744Z,93124.13
2022-12-15T06:45:33.170Z,93130.97
2022-12-15T06:48:01.522Z,93142.19
2022-12-15T06:50:28.370Z,93156.00
2022-12-15T06:52:54.824Z,93161.06
2022-12-15T06:55:21.238Z,93169.69
2022-12-15T06:57:47.687Z,93173.09
2022-12-15T07:00:14.150Z,93184.69
2022-12-15T07:02:40.747Z,93186.00
2022-12-15T07:05:07.484Z,93185.66
2022-12-15T07:07:34.170Z,93187.16
2022-12-15T07:10:00.639Z,93186.47
2022-12-15T07:12:27.090Z,93167.13
2022-12-15T07:14:53.873Z,93175.34
2022-12-15T07:17:20.319Z,93172.19
2022-12-15T07:19:46.753Z,93180.16
2022-12-15T07:22:13.160Z,93181.59
2022-12-15T07:24:39.694Z,93192.53
2022-12-15T07:27:06.109Z,93204.28
2022-12-15T07:29:32.506Z,93216.03
2022-12-15T07:31:58.992Z,93232.53
2022-12-15T07:34:25.449Z,93223.75
2022-12-15T07:36:52.858Z,93226.13
2022-12-15T07:39:19.467Z,93234.16
2022-12-15T07:41:46.033Z,93233.97
2022-12-15T07:44:12.448Z,93223.09
2022-12-15T07:46:38.977Z,93224.84
2022-12-15T07:49:05.473Z,93226.47
2022-12-15T07:51:31.913Z,93220.13
2022-12-15T07:53:58.330Z,93217.97
2022-12-15T07:56:24.748Z,93225.28
2022-12-15T07:58:51.237Z,93229.16
2022-12-15T08:01:17.764Z,93233.16
2022-12-15T08:03:44.312Z,93225.56
2022-12-15T08:06:10.931Z,93218.94
2022-12-15T08:08:37.415Z,93224.63
2022-12-15T08:11:03.868Z,93215.22
2022-12-15T08:14:01.281Z,93218.31
2022-12-15T08:16:16.770Z,93213.69
2022-12-15T08:18:43.213Z,93221.53
2022-12-15T08:21:09.631Z,93217.75
2022-12-15T08:23:36.127Z,93211.06
2022-12-15T08:26:02.660Z,93211.06
2022-12-15T08:28:29.132Z,93206.81
2022-12-15T08:30:55.588Z,93207.00
2022-12-15T08:33:22.037Z,93211.78
2022-12-15T08:35:56.923Z,93211.34
2022-12-15T08:38:23.830Z,93210.19
2022-12-15T08:40:50.270Z,93219.03
2022-12-15T08:43:16.724Z,93215.16
2022-12-15T08:45:43.249Z,93225.66
2022-12-15T08:48:09.734Z,93234.88
2022-12-15T08:50:36.175Z,93254.69
2022-12-15T08:53:29.495Z,93250.81
2022-12-15T08:55:49.104Z,93261.66
2022-12-15T08:58:15.531Z,93255.41
2022-12-15T09:00:41.946Z,93257.38
2022-12-15T09:03:08.387Z,93257.75
2022-12-15T09:05:34.870Z,93259.41
2022-12-15T09:08:06.389Z,93256.78
2022-12-15T09:10:33.223Z,93245.81
2022-12-15T09:12:59.694Z,93253.50
2022-12-15T09:15:45.455Z,93253.13
2022-12-15T09:18:12.513Z,93249.91
2022-12-15T09:20:38.941Z,93249.25
2022-12-15T09:23:05.409Z,93245.97
2022-12-15T09:25:31.847Z,93241.75
2022-12-15T09:27:58.263Z,93223.31
2022-12-15T09:30:24.782Z,93235.59
2022-12-15T09:32:51.304Z,93225.03
2022-12-15T09:35:17.751Z,93227.97
2022-12-15T09:37:48.493Z,93234.22
2022-12-15T09:40:18.087Z,93240.44
2022-12-15T09:42:44.983Z,93237.56
2022-12-15T09:45:11.468Z,93236.72
2022-12-15T09:47:38.179Z,93238.53
2022-12-15T09:50:04.769Z,93233.28
2022-12-15T09:52:32.369Z,93238.53
2022-12-15T09:54:59.077Z,93232.47
2022-12-15T09:57:26.604Z,93232.47
2022-12-15T09:59:54.197Z,93225.59
2022-12-15T10:02:20.899Z,93219.53
2022-12-15T10:04:50.730Z,93220.75
2022-12-15T10:07:18.014Z,93218.44
2022-12-15T10:09:44.426Z,93216.03
2022-12-15T10:12:11.558Z,93220.47
2022-12-15T10:14:38.044Z,93231.13
2022-12-15T10:17:04.493Z,93233.28
2022-12-15T10:19:30.956Z,93222.97
2022-12-15T10:21:57.552Z,93221.19
2022-12-15T10:25:07.400Z,93221.00
2022-12-15T10:27:10.949Z,93217.56
2022-12-15T10:29:37.896Z,93211.50
2022-12-15T10:32:04.339Z,93196.41
2022-12-15T10:34:30.841Z,93192.19
2022-12-15T10:36:57.279Z,93196.59
2022-12-15T10:39:23.719Z,93180.88
2022-12-15T10:41:50.156Z,93181.69
2022-12-15T10:44:16.580Z,93181.69
2022-12-15T10:46:43.171Z,93186.13
2022-12-15T10:49:09.599Z,93182.50
2022-12-15T10:51:36.046Z,93180.50
2022-12-15T10:54:02.536Z,93171.28
2022-12-15T10:56:33.317Z,93160.19
2022-12-15T10:59:00.469Z,93155.22
2022-12-15T11:01:27.537Z,93155.03
2022-12-15T11:03:55.286Z,93144.16
2022-12-15T11:06:22.663Z,93138.59
2022-12-15T11:08:49.354Z,93134.75
2022-12-15T11:11:16.821Z,93134.59
2022-12-15T11:13:43.832Z,93121.31
2022-12-15T11:16:11.042Z,93131.16
2022-12-15T11:18:37.632Z,93117.88
2022-12-15T11:21:05.250Z,93124.09
2022-12-15T11:23:33.276Z,93116.41
2022-12-15T11:26:04.907Z,93117.41
2022-12-15T11:28:33.419Z,93117.41
2022-12-15T11:30:59.878Z,93107.13
2022-12-15T11:33:26.320Z,93103.69
2022-12-15T11:35:52.908Z,93101.88
2022-12-15T11:38:19.568Z,93085.59
2022-12-15T11:40:46.023Z,93085.88
2022-12-15T11:43:12.469Z,93086.25
2022-12-15T11:45:39.247Z,93075.59
2022-12-15T11:48:05.837Z,93062.66
2022-12-15T11:50:32.436Z,93059.84
2022-12-15T11:52:59.005Z,93053.97
2022-12-15T11:55:31.045Z,93051.34
2022-12-15T11:58:00.754Z,93051.91
2022-12-15T12:00:27.264Z,93040.44
2022-12-15T12:02:53.711Z,93037.34
2022-12-15T12:05:21.034Z,93038.38
2022-12-15T12:07:49.063Z,93051.28
2022-12-15T12:10:15.571Z,93042.25
2022-12-15T12:12:42.107Z,93043.06
2022-12-15T12:15:10.435Z,93045.28
2022-12-15T12:17:37.020Z,93046.38
2022-12-15T12:20:09.509Z,93033.19
2022-12-15T12:22:38.227Z,93027.91
2022-12-15T12:25:04.632Z,93026.88
2022-12-15T12:27:31.406Z,93017.75
2022-12-15T12:29:58.013Z,93010.88
2022-12-15T12:32:25.608Z,93003.22
2022-12-15T12:34:52.197Z,93002.78
2022-12-15T12:37:38.668Z,93004.56
2022-12-15T12:40:05.105Z,93003.97
2022-12-15T12:42:31.498Z,93000.53
2022-12-15T12:44:57.951Z,92989.03
2022-12-15T12:47:25.425Z,92990.66
2022-12-15T12:49:51.875Z,92984.81
2022-12-15T12:52:18.363Z,92983.34
2022-12-15T12:54:46.040Z,92980.31
2022-12-15T12:57:15.639Z,92980.56
2022-12-15T13:08:11.355Z,92960.69
2022-12-15T13:10:58.562Z,92947.78
2022-12-15T13:13:30.249Z,92940.28
2022-12-15T13:15:58.475Z,92939.69
2022-12-15T13:18:27.376Z,92936.03
2022-12-15T13:20:56.592Z,92943.28
2022-12-15T13:23:26.009Z,92940.84
2022-12-15T13:25:56.419Z,92943.66
2022-12-15T13:28:25.470Z,92937.97
2022-12-15T13:30:54.690Z,92942.13
2022-12-15T13:33:23.678Z,92944.13
2022-12-15T13:35:51.264Z,92950.28
2022-12-15T13:38:20.869Z,92944.78
2022-12-15T13:40:50.559Z,92942.34
2022-12-15T13:43:19.052Z,92937.94
2022-12-15T13:45:48.894Z,92945.56
2022-12-15T13:48:18.366Z,92940.53
2022-12-15T13:50:51.104Z,92938.75
2022-12-15T13:53:19.749Z,92941.16
2022-12-15T13:55:51.104Z,92939.81
2022-12-15T13:58:17.779Z,92935.81
2022-12-15T14:00:46.365Z,92932.03
2022-12-15T14:03:16.028Z,92929.84
2022-12-15T14:05:43.572Z,92932.09
2022-12-15T14:08:12.198Z,92921.44
2022-12-15T14:10:39.794Z,92928.13
2022-12-15T14:13:15.874Z,92936.44
2022-12-15T14:15:44.056Z,92931.56
2022-12-15T14:18:12.674Z,92937.41
2022-12-15T14:20:40.259Z,92933.97
2022-12-15T14:23:06.857Z,92932.75
2022-12-15T14:25:33.449Z,92922.44
2022-12-15T14:28:01.050Z,92923.97
2022-12-15T14:30:27.538Z,92919.13
2022-12-15T14:32:55.219Z,92910.47
2022-12-15T14:35:21.810Z,92909.22
2022-12-15T14:37:48.467Z,92909.75
2022-12-15T14:40:16.064Z,92916.00
2022-12-15T14:42:43.640Z,92911.75
2022-12-15T14:45:10.214Z,92906.84
2022-12-15T14:47:37.813Z,92898.09
2022-12-15T14:50:05.395Z,92903.97
2022-12-15T14:52:31.979Z,92903.00
2022-12-15T14:54:59.589Z,92903.63
2022-12-15T14:57:26.179Z,92907.31
2022-12-15T14:59:52.763Z,92907.38
2022-12-15T15:02:20.435Z,92918.94
2022-12-15T15:04:47.940Z,92923.16
2022-12-15T15:07:14.402Z,92926.00
2022-12-15T15:09:40.960Z,92931.59
2022-12-15T15:12:07.423Z,92937.81
2022-12-15T15:14:34.327Z,92938.38
2022-12-15T15:17:03.026Z,92938.75
2022-12-15T15:19:32.351Z,92944.50
2022-12-15T15:22:00.148Z,92946.94
2022-12-15T15:24:27.743Z,92944.72
2022-12-15T15:26:54.381Z,92939.91
2022-12-15T15:29:21.202Z,92935.75
2022-12-15T15:31:47.666Z,92936.03
2022-12-15T15:34:14.138Z,92937.41
2022-12-15T15:36:40.791Z,92934.31
2022-12-15T15:39:08.293Z,92936.31
2022-12-15T15:41:35.888Z,92946.97
2022-12-15T15:44:02.479Z,92934.22
2022-12-15T15:46:29.140Z,92930.19
2022-12-15T15:48:56.652Z,92935.41
2022-12-15T15:51:23.245Z,92932.63
2022-12-15T15:53:50.823Z,92930.00
2022-12-15T15:56:17.407Z,92928.00
2022-12-15T15:58:43.921Z,92924.94
2022-12-15T16:01:13.264Z,92923.22
2022-12-15T16:03:41.295Z,92912.75
2022-12-15T16:06:08.368Z,92914.38
2022-12-15T16:08:35.223Z,92917.66
2022-12-15T16:11:01.994Z,92912.13
2022-12-15T16:13:28.522Z,92917.34
2022-12-15T16:15:55.017Z,92903.47
2022-12-15T16:18:21.471Z,92908.06
2022-12-15T16:20:47.899Z,92890.91
2022-12-15T16:23:14.324Z,92892.28
2022-12-15T16:25:48.452Z,92891.84
2022-12-15T16:28:15.082Z,92891.84
2022-12-15T16:30:41.619Z,92882.91
2022-12-15T16:33:08.111Z,92886.34
2022-12-15T16:35:34.558Z,92893.72
2022-12-15T16:38:00.987Z,92891.94
2022-12-15T16:40:27.422Z,92899.78
2022-12-15T16:42:53.831Z,92900.75
2022-12-15T16:45:20.238Z,92903.84
2022-12-15T16:47:46.650Z,92916.22
2022-12-15T16:50:13.118Z,92930.34
2022-12-15T16:52:39.527Z,92913.84
2022-12-15T16:55:05.938Z,92925.38
2022-12-15T16:57:32.322Z,92929.38
2022-12-15T16:59:58.698Z,92921.50
2022-12-15T17:02:27.712Z,92928.09
2022-12-15T17:04:54.371Z,92918.72
2022-12-15T17:07:21.190Z,92914.91
2022-12-15T17:09:47.647Z,92911.59
2022-12-15T17:12:14.058Z,92912.69
2022-12-15T17:14:41.038Z,92912.75
2022-12-15T17:17:07.810Z,92908.69
2022-12-15T17:19:34.230Z,92910.97
2022-12-15T17:22:00.646Z,92902.13
2022-12-15T17:24:27.131Z,92907.78
2022-12-15T17:26:53.579Z,92907.47
2022-12-15T17:29:19.994Z,92907.25
2022-12-15T17:31:46.489Z,92907.09
2022-12-15T17:34:13.006Z,92903.47
2022-12-15T17:36:39.501Z,92911.50
2022-12-15T17:39:05.907Z,92910.84
2022-12-15T17:44:36.179Z,92913.84
2022-12-15T17:47:03.558Z,92905.81
2022-12-15T17:49:35.106Z,92901.41
2022-12-15T17:52:02.351Z,92898.78
2022-12-15T17:54:28.779Z,92899.41
2022-12-15T17:56:55.206Z,92890.75
2022-12-15T17:59:21.643Z,92897.25
2022-12-15T18:01:48.169Z,92895.25
2022-12-15T18:04:14.733Z,92894.53
2022-12-15T18:06:41.214Z,92893.94
2022-12-15T18:09:07.650Z,92887.41
2022-12-15T18:11:34.090Z,92888.06
2022-12-15T18:14:00.531Z,92894.00
2022-12-15T18:16:27.057Z,92892.19
2022-12-15T18:18:53.573Z,92892.66
2022-12-15T18:21:19.986Z,92896.88
2022-12-15T18:23:46.423Z,92888.88
2022-12-15T18:26:12.822Z,92886.09
2022-12-15T18:28:39.238Z,92892.56
2022-12-15T18:31:05.679Z,92892.41
2022-12-15T18:33:32.475Z,92891.38
2022-12-15T18:35:59.143Z,92889.66
2022-12-15T18:38:25.551Z,92890.66
2022-12-15T18:40:51.973Z,92884.53
2022-12-15T18:43:18.496Z,92896.59
2022-12-15T18:45:44.891Z,92892.19
2022-12-15T18:48:11.332Z,92895.44
2022-12-15T18:50:37.755Z,92897.91
2022-12-15T18:53:04.239Z,92895.88
2022-12-15T18:55:30.684Z,92890.84
2022-12-15T18:57:57.103Z,92900.94
2022-12-15T19:00:23.533Z,92895.28
2022-12-15T19:02:50.084Z,92899.31
2022-12-15T19:05:16.562Z,92905.75
2022-12-15T19:07:42.972Z,92902.09
2022-12-15T19:10:09.415Z,92903.56
2022-12-15T19:12:35.881Z,92890.84
2022-12-15T19:15:02.392Z,92908.78
2022-12-15T19:17:28.816Z,92907.53
2022-12-15T19:19:55.228Z,92894.47
2022-12-15T19:22:21.658Z,92896.59
2022-12-15T19:24:48.231Z,92905.66
2022-12-15T19:27:14.618Z,92905.19
2022-12-15T19:29:41.038Z,92899.50
2022-12-15T19:32:07.449Z,92900.50
2022-12-15T19:34:33.846Z,92905.44
2022-12-15T19:37:00.253Z,92913.47
2022-12-15T19:39:26.682Z,92915.00
2022-12-15T19:41:53.105Z,92920.06
2022-12-15T19:44:21.356Z,92926.66
2022-12-15T19:46:47.782Z,92922.84
2022-12-15T19:49:14.235Z,92925.66
2022-12-15T19:51:40.678Z,92927.47
2022-12-15T19:54:07.136Z,92931.22
2022-12-15T19:56:33.579Z,92926.00
2022-12-15T19:58:59.972Z,92925.19
2022-12-15T20:01:26.475Z,92919.78
2022-12-15T20:03:52.989Z,92929.91
2022-12-15T20:06:19.394Z,92929.09
2022-12-15T20:08:45.809Z,92929.09
2022-12-15T20:11:12.250Z,92926.66
2022-12-15T20:13:38.670Z,92935.31
2022-12-15T20:16:05.183Z,92936.72
2022-12-15T20:18:31.960Z,92940.16
2022-12-15T20:20:58.700Z,92936.28
2022-12-15T20:23:25.206Z,92937.91
2022-12-15T20:25:51.646Z,92942.97
2022-12-15T20:28:18.027Z,92941.16
2022-12-15T20:30:44.463Z,92941.34
2022-12-15T20:33:11.147Z,92942.97
2022-12-15T20:35:37.543Z,92941.53
2022-12-15T20:38:03.996Z,92938.72
2022-12-15T20:40:30.398Z,92944.13
2022-12-15T20:42:56.820Z,92942.78
2022-12-15T20:45:23.249Z,92945.59
2022-12-15T20:47:49.654Z,92942.16
2022-12-15T20:50:16.237Z,92946.66
2022-12-15T20:52:42.669Z,92939.06
2022-12-15T20:55:09.093Z,92941.50
2022-12-15T20:57:35.491Z,92946.44
2022-12-15T21:00:01.923Z,92945.28
2022-12-15T21:02:28.499Z,92951.66
2022-12-15T21:04:54.959Z,92946.78
2022-12-15T21:07:21.460Z,92953.81
2022-12-15T21:09:47.871Z,92955.44
2022-12-15T21:12:14.274Z,92957.25
2022-12-15T21:14:40.682Z,92962.09
2022-12-15T21:17:07.241Z,92962.94
2022-12-15T21:19:33.728Z,92968.81
2022-12-15T21:22:00.157Z,92971.25
2022-12-15T21:24:26.590Z,92966.03
2022-12-15T21:26:53.006Z,92961.78
2022-12-15T21:29:20.128Z,92958.88
2022-12-15T21:31:46.508Z,92955.44
2022-12-15T21:34:12.952Z,92967.72
2022-12-15T21:36:39.455Z,92971.78
2022-12-15T21:39:05.839Z,92963.75
2022-12-15T21:41:32.222Z,92963.56
2022-12-15T21:43:58.644Z,92961.78
2022-12-15T21:46:27.943Z,92965.03
2022-12-15T21:48:54.645Z,92968.63
2022-12-15T21:51:21.111Z,92967.66
2022-12-15T21:53:47.506Z,92971.88
2022-12-15T21:56:13.938Z,92967.66
2022-12-15T21:58:40.331Z,92968.25
2022-12-15T22:01:06.757Z,92972.34
2022-12-15T22:03:33.198Z,92975.78
2022-12-15T22:05:59.669Z,92974.97
2022-12-15T22:08:26.106Z,92973.50
2022-12-15T22:10:52.548Z,92976.66
2022-12-15T22:13:21.268Z,92980.25
2022-12-15T22:15:47.658Z,92985.63
2022-12-15T22:18:14.120Z,92993.47
2022-12-15T22:20:40.525Z,93000.53
2022-12-15T22:23:06.966Z,93005.94
2022-12-15T22:25:33.385Z,93011.31
2022-12-15T22:27:59.791Z,93010.06
2022-12-15T22:30:26.218Z,93011.69
2022-12-15T22:32:52.631Z,93018.06
2022-12-15T22:35:20.275Z,93017.78
2022-12-15T22:37:46.690Z,93013.91
2022-12-15T22:40:13.105Z,93022.72
2022-12-15T22:42:39.543Z,93014.50
2022-12-15T22:45:05.951Z,93014.34
2022-12-15T22:47:32.369Z,93003.59
2022-12-15T22:49:58.800Z,93010.31
2022-12-15T22:52:25.216Z,93010.75
2022-12-15T22:54:51.646Z,93015.63
2022-12-15T22:57:18.310Z,93017.91
2022-12-15T22:59:44.756Z,93017.53
2022-12-15T23:02:11.150Z,93017.00
2022-12-15T23:04:37.537Z,93014.41
2022-12-15T23:07:03.967Z,93013.25
2022-12-15T23:09:30.425Z,93007.19
2022-12-15T23:11:56.844Z,93013.91
2022-12-15T23:14:23.274Z,93014.06
2022-12-15T23:16:49.681Z,93010.63
2022-12-15T23:19:16.980Z,93013.91
2022-12-15T23:21:43.403Z,93008.66
2022-12-15T23:24:09.814Z,93004.59
2022-12-15T23:26:36.266Z,93009.00
2022-12-15T23:29:02.694Z,93019.44
2022-12-15T23:31:29.186Z,93017.50
2022-12-15T23:33:55.714Z,93011.09
2022-12-15T23:36:22.131Z,93012.72
2022-12-15T23:38:48.549Z,93008.47
2022-12-15T23:41:15.050Z,93009.13
2022-12-15T23:43:41.444Z,93009.75
2022-12-15T23:46:08.373Z,93002.09
2022-12-15T23:48:34.873Z,92996.03
2022-12-15T23:51:01.297Z,92998.50
2022-12-15T23:53:27.739Z,93000.47
2022-12-15T23:55:54.173Z,93000.91
2022-12-15T23:58:20.611Z,93007.31
